createdAt,value
2018-04-30T00:02:04.002Z,16.20
2018-04-30T00:04:32.228Z,16.50
2018-04-30T00:06:59.676Z,16.40
2018-04-30T00:09:27.143Z,16.60
2018-04-30T00:11:54.624Z,16.70
2018-04-30T00:14:22.085Z,16.60
2018-04-30T00:16:49.546Z,16.70
2018-04-30T00:19:17.019Z,16.70
2018-04-30T00:21:44.476Z,16.80
2018-04-30T00:24:12.695Z,16.80
2018-04-30T00:26:40.155Z,16.80
2018-04-30T00:29:07.627Z,16.80
2018-04-30T00:31:35.118Z,16.70
2018-04-30T00:34:03.335Z,16.10
2018-04-30T00:36:30.807Z,16.10
2018-04-30T00:38:58.250Z,16.00
2018-04-30T00:41:25.731Z,15.90
2018-04-30T00:43:53.219Z,15.80
2018-04-30T00:46:21.504Z,15.70
2018-04-30T00:48:49.715Z,15.70
2018-04-30T00:51:17.192Z,15.70
2018-04-30T00:53:44.657Z,15.80
2018-04-30T00:56:12.125Z,15.80
2018-04-30T00:58:39.559Z,15.90
2018-04-30T01:01:07.058Z,16.10
2018-04-30T01:03:35.317Z,16.10
2018-04-30T01:06:06.908Z,16.20
2018-04-30T01:08:34.404Z,16.20
2018-04-30T01:11:01.867Z,16.30
2018-04-30T01:13:29.350Z,16.40
2018-04-30T01:15:56.828Z,16.20
2018-04-30T01:18:25.051Z,16.30
2018-04-30T01:20:52.512Z,16.20
2018-04-30T01:23:19.959Z,16.30
2018-04-30T01:25:47.479Z,16.20
2018-04-30T01:28:14.924Z,16.30
2018-04-30T01:30:43.131Z,16.20
2018-04-30T01:33:11.170Z,16.20
2018-04-30T01:35:38.687Z,16.30
2018-04-30T01:38:06.164Z,16.30
2018-04-30T01:40:33.631Z,16.30
2018-04-30T01:43:01.095Z,16.20
2018-04-30T01:45:29.324Z,16.20
2018-04-30T01:47:56.823Z,16.10
2018-04-30T01:50:25.062Z,16.30
2018-04-30T01:52:52.540Z,16.30
2018-04-30T01:55:20.104Z,16.10
2018-04-30T01:57:47.643Z,16.20
2018-04-30T02:00:15.123Z,16.20
2018-04-30T02:02:42.610Z,16.00
2018-04-30T02:05:10.052Z,16.10
2018-04-30T02:07:38.287Z,16.10
2018-04-30T02:10:05.851Z,16.10
2018-04-30T02:12:33.296Z,16.00
2018-04-30T02:15:00.782Z,16.00
2018-04-30T02:17:28.347Z,15.90
2018-04-30T02:19:55.800Z,16.00
2018-04-30T02:22:23.332Z,16.10
2018-04-30T02:24:50.808Z,16.10
2018-04-30T02:27:18.367Z,16.20
2018-04-30T02:29:45.878Z,16.30
2018-04-30T02:32:13.366Z,16.20
2018-04-30T02:34:40.821Z,16.20
2018-04-30T02:37:08.276Z,16.00
2018-04-30T02:39:35.845Z,15.90
2018-04-30T02:42:03.295Z,15.90
2018-04-30T02:44:30.772Z,15.80
2018-04-30T02:46:59.130Z,15.70
2018-04-30T02:49:26.619Z,15.60
2018-04-30T02:51:54.142Z,15.60
2018-04-30T02:54:21.734Z,15.70
2018-04-30T02:56:49.336Z,15.60
2018-04-30T02:59:16.806Z,15.70
2018-04-30T03:01:44.386Z,15.80
2018-04-30T03:04:11.872Z,15.90
2018-04-30T03:06:39.339Z,15.90
2018-04-30T03:09:07.588Z,15.90
2018-04-30T03:11:35.048Z,15.90
2018-04-30T03:14:02.524Z,15.90
2018-04-30T03:16:30.733Z,15.70
2018-04-30T03:18:58.290Z,15.70
2018-04-30T03:21:25.733Z,15.70
2018-04-30T03:23:53.175Z,15.60
2018-04-30T03:26:21.423Z,15.50
2018-04-30T03:28:48.996Z,15.50
2018-04-30T03:31:17.211Z,15.30
2018-04-30T03:33:45.482Z,15.30
2018-04-30T03:36:12.939Z,15.20
2018-04-30T03:38:40.421Z,15.00
2018-04-30T03:41:07.858Z,14.90
2018-04-30T03:43:35.363Z,14.80
2018-04-30T03:46:02.808Z,14.70
2018-04-30T03:48:30.264Z,14.60
2018-04-30T03:50:57.890Z,14.70
2018-04-30T03:53:25.400Z,14.80
2018-04-30T03:55:52.960Z,14.90
2018-04-30T03:58:20.437Z,14.90
2018-04-30T04:01:00.675Z,14.80
2018-04-30T04:03:40.039Z,14.80
2018-04-30T04:06:20.175Z,14.80
2018-04-30T04:08:48.386Z,14.80
2018-04-30T04:11:15.844Z,14.80
2018-04-30T04:13:43.297Z,14.80
2018-04-30T04:16:10.754Z,14.90
2018-04-30T04:18:38.204Z,14.70
2018-04-30T04:21:05.690Z,14.70
2018-04-30T04:23:33.134Z,14.70
2018-04-30T04:26:00.576Z,14.60
2018-04-30T04:28:28.139Z,14.70
2018-04-30T04:30:55.616Z,14.80
2018-04-30T04:33:23.092Z,14.80
2018-04-30T04:35:50.555Z,14.80
2018-04-30T04:38:18.013Z,14.90
2018-04-30T04:40:45.485Z,15.00
2018-04-30T04:43:13.707Z,15.00
2018-04-30T04:45:41.152Z,15.00
2018-04-30T04:48:08.611Z,15.10
2018-04-30T04:50:36.065Z,15.10
2018-04-30T04:53:03.576Z,15.20
2018-04-30T04:55:31.810Z,15.50
2018-04-30T04:57:59.255Z,15.50
2018-04-30T05:00:26.731Z,15.60
2018-04-30T05:02:54.170Z,15.50
2018-04-30T05:05:21.647Z,15.40
2018-04-30T05:07:49.121Z,15.30
2018-04-30T05:10:16.679Z,15.30
2018-04-30T05:12:44.164Z,15.40
2018-04-30T05:15:13.245Z,15.40
2018-04-30T05:17:40.692Z,15.40
2018-04-30T05:20:08.244Z,15.40
2018-04-30T05:22:35.798Z,15.40
2018-04-30T05:25:03.494Z,15.40
2018-04-30T05:27:30.931Z,15.50
2018-04-30T05:29:58.384Z,15.30
2018-04-30T05:32:25.918Z,15.20
2018-04-30T05:34:53.397Z,15.20
2018-04-30T05:37:20.840Z,15.20
2018-04-30T05:39:48.297Z,15.30
2018-04-30T05:42:15.742Z,15.40
2018-04-30T05:44:43.209Z,15.30
2018-04-30T05:47:10.683Z,15.30
2018-04-30T05:49:38.150Z,15.20
2018-04-30T05:52:05.718Z,15.00
2018-04-30T05:54:33.152Z,14.90
2018-04-30T05:57:00.629Z,14.90
2018-04-30T05:59:28.076Z,14.70
2018-04-30T06:01:55.549Z,14.70
2018-04-30T06:04:23.763Z,14.50
2018-04-30T06:06:51.233Z,14.50
2018-04-30T06:09:18.657Z,14.40
2018-04-30T06:11:46.239Z,14.30
2018-04-30T06:14:13.700Z,14.40
2018-04-30T06:16:41.178Z,14.40
2018-04-30T06:19:09.461Z,14.30
2018-04-30T06:21:36.929Z,14.30
2018-04-30T06:24:04.518Z,14.20
2018-04-30T06:26:32.787Z,14.00
2018-04-30T06:29:01.016Z,14.00
2018-04-30T06:31:28.474Z,14.00
2018-04-30T06:33:55.953Z,14.10
2018-04-30T06:36:23.397Z,14.20
2018-04-30T06:38:50.901Z,14.20
2018-04-30T06:41:18.349Z,14.10
2018-04-30T06:43:46.585Z,14.40
2018-04-30T06:46:14.110Z,14.30
2018-04-30T06:48:41.553Z,14.30
2018-04-30T06:51:09.002Z,14.10
2018-04-30T06:53:37.232Z,14.00
2018-04-30T06:56:04.688Z,14.00
2018-04-30T06:58:32.134Z,14.10
2018-04-30T07:00:59.667Z,14.10
2018-04-30T07:03:27.130Z,13.90
2018-04-30T07:05:54.615Z,14.00
2018-04-30T07:08:22.838Z,14.10
2018-04-30T07:10:51.046Z,14.00
2018-04-30T07:13:18.492Z,14.00
2018-04-30T07:15:45.961Z,14.00
2018-04-30T07:18:13.404Z,14.10
2018-04-30T07:20:40.875Z,14.00
2018-04-30T07:23:08.368Z,14.20
2018-04-30T07:25:35.813Z,14.20
2018-04-30T07:28:03.273Z,14.10
2018-04-30T07:30:30.728Z,14.10
2018-04-30T07:32:58.189Z,14.30
2018-04-30T07:35:26.670Z,14.40
2018-04-30T07:37:54.148Z,14.50
2018-04-30T07:40:22.384Z,14.60
2018-04-30T07:42:49.843Z,14.60
2018-04-30T07:45:17.299Z,14.70
2018-04-30T07:47:44.774Z,14.40
2018-04-30T07:50:12.234Z,14.50
2018-04-30T07:52:39.667Z,14.50
2018-04-30T07:55:07.137Z,14.70
2018-04-30T07:57:34.603Z,14.70
2018-04-30T08:00:02.104Z,14.70
2018-04-30T08:02:29.596Z,14.80
2018-04-30T08:04:57.061Z,14.50
2018-04-30T08:07:24.527Z,14.50
2018-04-30T08:09:52.039Z,14.50
2018-04-30T08:12:19.523Z,14.50
2018-04-30T08:14:46.978Z,14.60
2018-04-30T08:17:14.431Z,14.70
2018-04-30T08:19:41.908Z,14.60
2018-04-30T08:22:09.384Z,14.70
2018-04-30T08:24:36.870Z,14.80
2018-04-30T08:27:04.308Z,14.90
2018-04-30T08:29:32.530Z,15.00
2018-04-30T08:31:59.972Z,15.00
2018-04-30T08:34:27.431Z,15.10
2018-04-30T08:36:54.900Z,15.40
2018-04-30T08:39:22.361Z,15.40
2018-04-30T08:41:49.903Z,15.20
2018-04-30T08:44:17.375Z,15.00
2018-04-30T08:46:44.840Z,15.00
2018-04-30T08:49:12.304Z,14.80
2018-04-30T08:51:39.762Z,14.80
2018-04-30T08:54:07.219Z,15.00
2018-04-30T08:56:34.699Z,15.20
2018-04-30T08:59:02.200Z,15.30
2018-04-30T09:01:29.680Z,15.40
2018-04-30T09:03:57.123Z,15.30
2018-04-30T09:06:24.571Z,15.30
2018-04-30T09:08:52.052Z,15.30
2018-04-30T09:11:19.524Z,15.20
2018-04-30T09:13:46.979Z,15.10
2018-04-30T09:16:14.497Z,14.90
2018-04-30T09:18:41.963Z,14.80
2018-04-30T09:21:09.403Z,14.80
2018-04-30T09:23:36.855Z,14.90
2018-04-30T09:26:04.312Z,15.00
2018-04-30T09:28:31.810Z,15.00
2018-04-30T09:30:59.258Z,15.10
2018-04-30T09:33:26.700Z,15.00
2018-04-30T09:35:54.156Z,15.10
2018-04-30T09:38:21.612Z,15.10
2018-04-30T09:40:49.088Z,15.10
2018-04-30T09:43:16.557Z,15.00
2018-04-30T09:45:43.999Z,15.00
2018-04-30T09:48:11.444Z,15.00
2018-04-30T09:50:38.898Z,15.20
2018-04-30T09:53:06.366Z,15.50
2018-04-30T09:55:33.829Z,15.70
2018-04-30T09:58:01.411Z,16.60
2018-04-30T10:00:28.751Z,16.40
2018-04-30T10:02:56.187Z,16.30
2018-04-30T10:05:23.667Z,16.30
2018-04-30T10:07:51.130Z,16.50
2018-04-30T10:10:18.605Z,16.50
2018-04-30T10:12:46.063Z,17.10
2018-04-30T10:15:13.540Z,17.00
2018-04-30T10:17:41.863Z,16.50
2018-04-30T10:20:09.255Z,16.60
2018-04-30T10:22:37.465Z,16.20
2018-04-30T10:25:04.952Z,16.20
2018-04-30T10:27:32.396Z,16.30
2018-04-30T10:29:59.869Z,16.00
2018-04-30T10:32:27.343Z,15.80
2018-04-30T10:34:54.823Z,15.60
2018-04-30T10:37:23.044Z,15.70
2018-04-30T10:39:50.502Z,15.70
2018-04-30T10:42:17.979Z,15.70
2018-04-30T10:44:45.431Z,15.60
2018-04-30T10:47:12.922Z,15.60
2018-04-30T10:49:41.132Z,15.40
2018-04-30T10:52:08.571Z,15.30
2018-04-30T10:54:36.058Z,15.40
2018-04-30T10:57:03.518Z,15.40
2018-04-30T10:59:31.016Z,15.30
2018-04-30T11:01:59.229Z,15.50
2018-04-30T11:04:26.702Z,15.50
2018-04-30T11:06:54.164Z,15.70
2018-04-30T11:09:21.605Z,16.20
2018-04-30T11:11:50.611Z,16.90
2018-04-30T11:14:18.052Z,17.20
2018-04-30T11:16:45.511Z,17.80
2018-04-30T11:19:12.970Z,17.60
2018-04-30T11:21:40.438Z,17.30
2018-04-30T11:24:07.916Z,16.90
2018-04-30T11:26:35.411Z,16.90
2018-04-30T11:29:03.642Z,19.40
2018-04-30T11:31:31.100Z,19.40
2018-04-30T11:33:58.570Z,18.50
2018-04-30T11:36:26.011Z,18.30
2018-04-30T11:38:53.538Z,18.10
2018-04-30T11:41:20.999Z,18.00
2018-04-30T11:43:48.455Z,19.00
2018-04-30T11:46:15.912Z,18.90
2018-04-30T11:48:43.740Z,19.20
2018-04-30T11:51:11.998Z,19.10
2018-04-30T11:53:39.459Z,19.10
2018-04-30T11:56:06.926Z,18.50
2018-04-30T11:58:35.853Z,17.50
2018-04-30T12:01:03.251Z,17.40
2018-04-30T12:03:30.682Z,17.10
2018-04-30T12:05:58.126Z,16.50
2018-04-30T12:08:25.599Z,16.60
2018-04-30T12:10:53.166Z,16.40
2018-04-30T12:13:20.565Z,16.50
2018-04-30T12:15:48.801Z,16.40
2018-04-30T12:18:16.295Z,16.40
2018-04-30T12:20:43.767Z,16.20
2018-04-30T12:23:11.230Z,16.20
2018-04-30T12:25:38.684Z,16.10
2018-04-30T12:28:06.170Z,16.30
2018-04-30T12:30:33.651Z,16.30
2018-04-30T12:33:01.129Z,16.10
2018-04-30T12:35:29.378Z,15.90
2018-04-30T12:37:56.820Z,15.80
2018-04-30T12:40:25.097Z,15.40
2018-04-30T12:42:52.574Z,15.40
2018-04-30T12:45:20.030Z,15.20
2018-04-30T12:47:47.522Z,15.30
2018-04-30T12:50:15.110Z,15.30
2018-04-30T12:52:42.581Z,15.50
2018-04-30T12:55:10.062Z,15.70
2018-04-30T12:57:37.526Z,15.60
2018-04-30T13:00:04.974Z,15.30
2018-04-30T13:02:32.490Z,15.40
2018-04-30T13:04:59.945Z,15.70
2018-04-30T13:07:27.412Z,17.50
2018-04-30T13:09:54.884Z,17.20
2018-04-30T13:12:22.342Z,17.00
2018-04-30T13:14:49.799Z,18.50
2018-04-30T13:17:17.263Z,17.30
2018-04-30T13:19:44.735Z,16.80
2018-04-30T13:22:12.228Z,16.10
2018-04-30T13:24:40.447Z,15.50
2018-04-30T13:27:07.888Z,15.40
2018-04-30T13:29:35.382Z,15.30
2018-04-30T13:32:02.863Z,15.10
2018-04-30T13:34:31.173Z,14.90
2018-04-30T13:36:58.618Z,14.90
2018-04-30T13:39:26.056Z,14.60
2018-04-30T13:41:54.278Z,14.50
2018-04-30T13:44:21.732Z,14.50
2018-04-30T13:46:49.201Z,14.70
2018-04-30T13:49:16.644Z,14.80
2018-04-30T13:51:44.096Z,14.70
2018-04-30T13:54:11.551Z,14.80
2018-04-30T13:56:39.012Z,14.60
2018-04-30T13:59:06.464Z,14.70
2018-04-30T14:01:33.948Z,14.40
2018-04-30T14:04:01.419Z,14.20
2018-04-30T14:06:28.883Z,14.10
2018-04-30T14:08:56.373Z,14.00
2018-04-30T14:11:23.805Z,14.00
2018-04-30T14:13:52.041Z,13.70
2018-04-30T14:16:19.487Z,13.70
2018-04-30T14:18:46.954Z,13.60
2018-04-30T14:21:14.425Z,13.70
2018-04-30T14:23:41.898Z,13.60
2018-04-30T14:26:09.346Z,13.80
2018-04-30T14:28:36.795Z,13.80
2018-04-30T14:31:04.266Z,13.70
2018-04-30T14:33:31.702Z,13.80
2018-04-30T14:35:59.182Z,13.70
2018-04-30T14:38:26.727Z,13.70
2018-04-30T14:40:54.099Z,14.00
2018-04-30T14:43:22.335Z,14.00
2018-04-30T14:45:49.772Z,14.00
2018-04-30T14:48:17.243Z,14.00
2018-04-30T14:50:44.686Z,14.00
2018-04-30T14:53:12.243Z,13.80
2018-04-30T14:55:39.681Z,13.70
2018-04-30T14:58:07.887Z,13.40
2018-04-30T15:00:35.368Z,13.40
2018-04-30T15:03:02.826Z,13.40
2018-04-30T15:05:30.308Z,13.10
2018-04-30T15:07:58.516Z,12.90
2018-04-30T15:10:25.963Z,12.90
2018-04-30T15:12:53.416Z,12.90
2018-04-30T15:15:20.888Z,13.10
2018-04-30T15:17:48.360Z,13.00
2018-04-30T15:20:15.837Z,12.90
2018-04-30T15:22:43.996Z,13.20
2018-04-30T15:25:11.455Z,13.50
2018-04-30T15:27:38.920Z,13.50
2018-04-30T15:30:06.448Z,13.60
2018-04-30T15:32:33.920Z,13.70
2018-04-30T15:35:01.363Z,13.60
2018-04-30T15:37:28.866Z,13.70
2018-04-30T15:39:56.342Z,13.80
2018-04-30T15:42:24.548Z,13.90
2018-04-30T15:44:52.011Z,13.90
2018-04-30T15:47:19.455Z,14.20
2018-04-30T15:49:46.918Z,14.40
2018-04-30T15:52:14.386Z,14.80
2018-04-30T15:54:41.943Z,14.90
2018-04-30T15:57:09.289Z,15.10
2018-04-30T15:59:36.732Z,15.00
2018-04-30T16:02:04.194Z,14.70
2018-04-30T16:04:31.654Z,14.50
2018-04-30T16:06:59.079Z,14.40
2018-04-30T16:09:27.476Z,14.30
2018-04-30T16:11:55.706Z,14.40
2018-04-30T16:14:23.148Z,14.40
2018-04-30T16:16:50.625Z,14.40
2018-04-30T16:19:18.865Z,14.30
2018-04-30T16:21:46.395Z,14.20
2018-04-30T16:24:14.644Z,14.00
2018-04-30T16:26:42.101Z,14.00
2018-04-30T16:29:09.593Z,14.10
2018-04-30T16:31:37.911Z,13.60
2018-04-30T16:34:05.405Z,13.60
2018-04-30T16:36:33.617Z,13.60
2018-04-30T16:39:01.072Z,13.60
2018-04-30T16:41:28.543Z,13.50
2018-04-30T16:43:56.003Z,13.70
2018-04-30T16:46:23.463Z,13.80
2018-04-30T16:48:50.952Z,13.60
2018-04-30T16:51:18.390Z,13.50
2018-04-30T16:53:45.827Z,13.30
2018-04-30T16:56:13.327Z,13.30
2018-04-30T16:58:40.768Z,13.20
2018-04-30T17:01:08.214Z,13.30
2018-04-30T17:03:35.673Z,13.10
2018-04-30T17:06:03.158Z,13.10
2018-04-30T17:08:31.364Z,13.20
2018-04-30T17:10:58.828Z,13.20
2018-04-30T17:13:26.284Z,13.20
2018-04-30T17:15:53.774Z,13.20
2018-04-30T17:18:21.235Z,13.00
2018-04-30T17:20:48.696Z,12.90
2018-04-30T17:23:16.154Z,13.00
2018-04-30T17:25:43.606Z,13.10
2018-04-30T17:28:11.075Z,13.00
2018-04-30T17:30:38.515Z,12.90
2018-04-30T17:33:06.005Z,12.80
2018-04-30T17:35:34.247Z,12.50
2018-04-30T17:38:01.682Z,12.50
2018-04-30T17:40:29.131Z,12.50
2018-04-30T17:42:56.714Z,12.50
2018-04-30T17:45:24.163Z,12.70
2018-04-30T17:47:51.601Z,12.80
2018-04-30T17:50:19.052Z,12.90
2018-04-30T17:52:46.502Z,12.70
2018-04-30T17:55:13.954Z,12.60
2018-04-30T17:57:42.012Z,12.60
2018-04-30T18:00:10.238Z,12.40
2018-04-30T18:02:37.728Z,12.40
2018-04-30T18:05:06.000Z,12.50
2018-04-30T18:07:33.441Z,12.50
2018-04-30T18:10:00.896Z,12.60
2018-04-30T18:12:28.372Z,12.70
2018-04-30T18:14:55.806Z,12.70
2018-04-30T18:17:23.337Z,12.60
2018-04-30T18:19:50.833Z,12.60
2018-04-30T18:22:18.249Z,12.50
2018-04-30T18:24:45.709Z,12.40
2018-04-30T18:27:13.215Z,12.40
2018-04-30T18:29:40.683Z,12.30
2018-04-30T18:32:08.892Z,11.90
2018-04-30T18:34:36.453Z,11.90
2018-04-30T18:37:03.926Z,11.80
2018-04-30T18:39:31.368Z,11.90
2018-04-30T18:41:58.820Z,11.90
2018-04-30T18:44:26.392Z,11.90
2018-04-30T18:46:53.780Z,11.90
2018-04-30T18:49:21.267Z,11.70
2018-04-30T18:51:48.752Z,11.60
2018-04-30T18:54:16.220Z,11.50
2018-04-30T18:56:43.693Z,11.50
2018-04-30T18:59:11.169Z,11.50
2018-04-30T19:01:38.716Z,11.50
2018-04-30T19:04:06.137Z,11.50
2018-04-30T19:06:33.595Z,11.50
2018-04-30T19:09:01.116Z,11.60
2018-04-30T19:11:29.359Z,11.60
2018-04-30T19:13:57.652Z,11.50
2018-04-30T19:16:25.105Z,11.50
2018-04-30T19:18:52.568Z,11.60
2018-04-30T19:21:20.051Z,11.70
2018-04-30T19:23:48.296Z,11.50
2018-04-30T19:26:15.792Z,11.50
2018-04-30T19:28:43.243Z,11.40
2018-04-30T19:31:10.696Z,11.20
2018-04-30T19:33:38.954Z,11.20
2018-04-30T19:36:06.420Z,11.20
2018-04-30T19:38:34.656Z,11.00
2018-04-30T19:41:02.103Z,11.00
2018-04-30T19:43:29.551Z,11.00
2018-04-30T19:45:57.038Z,10.90
2018-04-30T19:48:24.507Z,10.90
2018-04-30T19:50:52.011Z,10.90
2018-04-30T19:53:19.452Z,10.90
2018-04-30T19:55:46.903Z,10.90
2018-04-30T19:58:15.133Z,10.80
2018-04-30T20:00:42.572Z,10.80
2018-04-30T20:03:10.028Z,10.80
2018-04-30T20:05:37.531Z,10.80
2018-04-30T20:08:05.771Z,10.60
2018-04-30T20:10:33.235Z,10.60
2018-04-30T20:13:00.720Z,10.50
2018-04-30T20:15:28.210Z,10.40
2018-04-30T20:17:55.704Z,10.50
2018-04-30T20:20:23.227Z,10.40
2018-04-30T20:22:50.692Z,10.40
2018-04-30T20:25:18.149Z,10.40
2018-04-30T20:27:45.604Z,10.40
2018-04-30T20:30:13.066Z,10.30
2018-04-30T20:32:40.561Z,10.30
2018-04-30T20:35:08.005Z,10.20
2018-04-30T20:37:35.506Z,10.10
2018-04-30T20:40:03.800Z,10.10
2018-04-30T20:42:31.512Z,10.10
2018-04-30T20:44:59.386Z,10.10
2018-04-30T20:47:26.984Z,10.10
2018-04-30T20:49:54.495Z,10.10
2018-04-30T20:52:21.927Z,10.20
2018-04-30T20:54:49.501Z,10.20
2018-04-30T20:57:16.968Z,10.10
2018-04-30T20:59:44.449Z,10.10
2018-04-30T21:02:11.916Z,10.10
2018-04-30T21:04:40.228Z,10.10
2018-04-30T21:07:07.698Z,10.10
2018-04-30T21:09:35.190Z,10.10
2018-04-30T21:12:02.643Z,10.10
2018-04-30T21:14:30.112Z,10.10
2018-04-30T21:16:57.600Z,10.10
2018-04-30T21:19:25.039Z,10.10
2018-04-30T21:21:53.264Z,10.00
2018-04-30T21:24:20.779Z,10.00
2018-04-30T21:26:48.191Z,9.90
2018-04-30T21:29:15.638Z,9.90
2018-04-30T21:31:43.078Z,9.90
2018-04-30T21:34:10.987Z,9.90
2018-04-30T21:36:38.439Z,9.90
2018-04-30T21:39:05.892Z,9.90
2018-04-30T21:41:34.280Z,9.90
2018-04-30T21:44:01.731Z,9.90
2018-04-30T21:46:29.164Z,9.80
2018-04-30T21:48:56.633Z,9.80
2018-04-30T21:51:24.103Z,9.80
2018-04-30T21:53:51.578Z,9.80
2018-04-30T21:56:19.821Z,9.90
2018-04-30T21:58:47.272Z,9.90
2018-04-30T22:01:14.721Z,9.90
2018-04-30T22:03:42.165Z,9.90
2018-04-30T22:06:09.618Z,9.90
2018-04-30T22:08:37.096Z,9.80
2018-04-30T22:11:04.546Z,9.70
2018-04-30T22:13:31.998Z,9.70
2018-04-30T22:15:59.473Z,9.70
2018-04-30T22:18:26.922Z,9.60
2018-04-30T22:20:54.391Z,9.60
2018-04-30T22:23:21.846Z,9.40
2018-04-30T22:25:49.317Z,9.50
2018-04-30T22:28:16.770Z,9.40
2018-04-30T22:30:44.212Z,9.40
2018-04-30T22:33:11.680Z,9.40
2018-04-30T22:35:39.145Z,9.30
2018-04-30T22:38:06.580Z,9.30
2018-04-30T22:40:34.049Z,9.30
2018-04-30T22:43:01.526Z,9.20
2018-04-30T22:45:29.729Z,9.10
2018-04-30T22:47:57.163Z,9.10
2018-04-30T22:50:25.440Z,9.10
2018-04-30T22:52:53.637Z,9.10
2018-04-30T22:55:21.081Z,9.10
2018-04-30T22:57:48.572Z,9.10
2018-04-30T23:00:18.921Z,9.10
2018-04-30T23:02:46.354Z,9.20
2018-04-30T23:05:13.815Z,9.30
2018-04-30T23:07:41.288Z,9.30
2018-04-30T23:10:08.734Z,9.30
2018-04-30T23:12:36.173Z,9.40
2018-04-30T23:15:03.610Z,9.20
2018-04-30T23:17:31.041Z,9.10
2018-04-30T23:19:59.276Z,9.10
2018-04-30T23:22:27.548Z,9.10
2018-04-30T23:24:55.007Z,9.10
2018-04-30T23:27:22.480Z,9.00
2018-04-30T23:29:49.938Z,9.00
2018-04-30T23:32:17.384Z,9.00
2018-04-30T23:34:44.864Z,9.00
2018-04-30T23:37:13.101Z,9.00
2018-04-30T23:39:40.579Z,9.00
2018-04-30T23:42:08.016Z,9.10
2018-04-30T23:44:35.487Z,9.20
2018-04-30T23:47:02.937Z,9.10
2018-04-30T23:49:30.401Z,9.00
2018-04-30T23:51:57.871Z,9.00
2018-04-30T23:54:25.316Z,9.00
2018-04-30T23:56:52.767Z,9.00
2018-04-30T23:59:20.230Z,8.90
